Time;durP1;ratioP1;P1;durP2;ratioP2;P2;SDS_P1;SDS_P2;PMS_P1;PMS_P2;Temp;Humidity;BMP_temperature;BMP_pressure;BME280_temperature;BME280_humidity;BME280_pressure;Samples;Min_cycle;Max_cycle;Signal;HPM_P1;HPM_P2
2023/01/18 00:01:18;;;;;;;66.03;27.27;;;;;;;;;;5074919;28;20269;-45
2023/01/18 00:03:46;;;;;;;68.03;27.87;;;;;;;;;;5074673;28;20195;-45
2023/01/18 00:06:13;;;;;;;35.57;19.90;;;;;;;;;;5074815;28;20214;-45
2023/01/18 00:08:41;;;;;;;36.17;18.60;;;;;;;;;;5074718;28;20531;-45
2023/01/18 00:11:10;;;;;;;32.47;19.37;;;;;;;;;;5074532;28;20527;-45
2023/01/18 00:13:38;;;;;;;33.33;18.57;;;;;;;;;;5074396;28;20208;-44
2023/01/18 00:16:07;;;;;;;30.57;18.07;;;;;;;;;;5074577;28;20204;-45
2023/01/18 00:18:35;;;;;;;30.63;18.80;;;;;;;;;;5073660;28;20214;-45
2023/01/18 00:21:03;;;;;;;35.47;18.57;;;;;;;;;;5074366;28;20652;-46
2023/01/18 00:23:31;;;;;;;34.50;19.43;;;;;;;;;;5074720;28;20231;-45
2023/01/18 00:26:03;;;;;;;32.40;19.03;;;;;;;;;;5074934;28;20203;-45
2023/01/18 00:28:31;;;;;;;35.23;18.87;;;;;;;;;;5078150;28;20208;-44
2023/01/18 00:30:58;;;;;;;35.13;19.00;;;;;;;;;;5077780;28;20218;-44
2023/01/18 00:33:25;;;;;;;37.07;19.83;;;;;;;;;;5077971;28;20612;-45
2023/01/18 00:35:57;;;;;;;34.03;18.80;;;;;;;;;;5077557;28;20640;-45
2023/01/18 00:38:25;;;;;;;32.80;19.27;;;;;;;;;;5077784;28;20207;-45
2023/01/18 00:40:52;;;;;;;33.50;19.03;;;;;;;;;;5077926;28;20199;-46
2023/01/18 00:43:38;;;;;;;42.87;21.43;;;;;;;;;;5077525;28;20203;-45
2023/01/18 00:46:20;;;;;;;39.43;21.30;;;;;;;;;;5077510;28;20613;-45
2023/01/18 00:48:48;;;;;;;42.90;20.20;;;;;;;;;;5077867;28;20222;-45
2023/01/18 00:51:18;;;;;;;36.67;21.03;;;;;;;;;;5077730;28;20202;-44
2023/01/18 00:53:45;;;;;;;50.43;29.53;;;;;;;;;;5077936;28;20204;-44
2023/01/18 00:56:18;;;;;;;45.70;25.83;;;;;;;;;;5077289;28;20215;-46
2023/01/18 00:58:45;;;;;;;46.87;25.80;;;;;;;;;;5076896;28;20215;-45
2023/01/18 01:01:12;;;;;;;40.20;22.40;;;;;;;;;;5077603;28;20230;-46
2023/01/18 01:06:44;;;;;;;36.63;20.13;;;;;;;;;;5077548;28;20272;-46
2023/01/18 01:09:22;;;;;;;38.20;20.67;;;;;;;;;;5076980;28;20231;-45
2023/01/18 01:26:07;;;;;;;33.17;16.30;;;;;;;;;;5077303;28;20264;-46
2023/01/18 01:28:41;;;;;;;32.67;17.63;;;;;;;;;;5077187;28;20184;-45
2023/01/18 01:31:13;;;;;;;28.87;17.13;;;;;;;;;;5076999;28;20237;-45
2023/01/18 01:33:41;;;;;;;28.67;16.20;;;;;;;;;;5076688;28;20503;-49
2023/01/18 01:36:13;;;;;;;25.17;15.90;;;;;;;;;;5076628;28;20264;-45
2023/01/18 01:38:40;;;;;;;33.47;18.93;;;;;;;;;;5076493;28;20624;-45
2023/01/18 01:41:29;;;;;;;31.33;16.83;;;;;;;;;;5076713;28;20207;-45
2023/01/18 01:44:26;;;;;;;29.50;17.37;;;;;;;;;;5076687;28;20269;-45
2023/01/18 01:46:57;;;;;;;31.33;17.27;;;;;;;;;;5073436;28;20203;-45
2023/01/18 01:49:38;;;;;;;32.00;18.20;;;;;;;;;;5077145;28;20224;-45
2023/01/18 01:52:11;;;;;;;27.63;16.50;;;;;;;;;;5075698;28;20608;-45
2023/01/18 01:54:46;;;;;;;30.93;17.77;;;;;;;;;;5075652;28;20219;-45
2023/01/18 01:57:16;;;;;;;32.27;18.27;;;;;;;;;;5076887;28;20203;-45
2023/01/18 01:59:55;;;;;;;32.97;18.33;;;;;;;;;;5076461;28;20214;-46
2023/01/18 02:02:22;;;;;;;31.50;17.57;;;;;;;;;;5075832;28;20191;-45
2023/01/18 02:04:52;;;;;;;30.13;17.30;;;;;;;;;;5076289;28;20207;-45
2023/01/18 02:07:21;;;;;;;38.47;18.73;;;;;;;;;;5076887;28;20215;-45
2023/01/18 02:09:49;;;;;;;30.07;18.47;;;;;;;;;;5076072;28;20549;-45
2023/01/18 02:12:16;;;;;;;30.37;17.33;;;;;;;;;;5075921;28;20204;-45
2023/01/18 02:14:43;;;;;;;30.67;16.97;;;;;;;;;;5075869;28;20294;-45
2023/01/18 02:17:30;;;;;;;29.60;15.67;;;;;;;;;;5076091;28;20204;-45
2023/01/18 02:20:18;;;;;;;28.93;16.27;;;;;;;;;;5075710;28;20274;-44
2023/01/18 02:23:26;;;;;;;30.90;16.27;;;;;;;;;;5075801;28;20243;-45
2023/01/18 02:26:42;;;;;;;25.53;14.97;;;;;;;;;;5075789;28;20238;-45
2023/01/18 02:29:31;;;;;;;31.50;16.93;;;;;;;;;;5017788;28;20200;-46
2023/01/18 02:32:13;;;;;;;29.17;16.67;;;;;;;;;;5033885;28;20193;-45
2023/01/18 02:35:01;;;;;;;30.93;18.17;;;;;;;;;;5068468;28;20200;-45
2023/01/18 02:38:04;;;;;;;31.07;17.60;;;;;;;;;;5075619;28;20253;-46
2023/01/18 02:40:37;;;;;;;26.77;15.70;;;;;;;;;;5073810;28;20203;-46
2023/01/18 02:48:42;;;;;;;26.83;16.47;;;;;;;;;;5074029;28;20547;-45
2023/01/18 02:51:10;;;;;;;35.07;18.30;;;;;;;;;;5074283;28;20319;-45
2023/01/18 02:53:40;;;;;;;27.00;14.87;;;;;;;;;;5075259;28;20282;-45
2023/01/18 02:56:22;;;;;;;29.20;15.33;;;;;;;;;;5074318;28;20640;-45
2023/01/18 02:58:55;;;;;;;28.43;15.53;;;;;;;;;;5075184;28;20206;-45
2023/01/18 03:01:29;;;;;;;25.30;14.37;;;;;;;;;;5075723;28;20546;-45
2023/01/18 03:04:03;;;;;;;28.60;14.63;;;;;;;;;;5074871;28;20314;-45
2023/01/18 03:06:31;;;;;;;25.17;14.23;;;;;;;;;;5074609;28;20240;-46
2023/01/18 03:08:58;;;;;;;22.80;13.90;;;;;;;;;;5074170;28;20203;-45
2023/01/18 03:11:52;;;;;;;25.57;15.07;;;;;;;;;;5074737;28;20261;-45
2023/01/18 03:14:38;;;;;;;24.70;14.70;;;;;;;;;;5074692;28;20290;-45
2023/01/18 03:17:20;;;;;;;26.50;14.87;;;;;;;;;;5075432;28;20207;-45
2023/01/18 03:20:06;;;;;;;25.13;14.93;;;;;;;;;;5074212;28;20533;-45
2023/01/18 03:25:38;;;;;;;26.33;14.63;;;;;;;;;;5074012;28;20282;-45
2023/01/18 03:33:54;;;;;;;29.60;16.40;;;;;;;;;;5074938;28;20510;-45
2023/01/18 03:36:25;;;;;;;29.53;15.63;;;;;;;;;;5074121;28;20261;-45
2023/01/18 03:39:00;;;;;;;28.87;16.47;;;;;;;;;;5074925;28;20504;-45
2023/01/18 03:41:31;;;;;;;28.00;16.30;;;;;;;;;;5074710;28;20297;-46
2023/01/18 03:44:03;;;;;;;28.20;15.23;;;;;;;;;;5074055;28;20207;-45
2023/01/18 03:46:31;;;;;;;30.23;15.80;;;;;;;;;;5073891;28;20207;-46
2023/01/18 03:48:58;;;;;;;32.73;17.10;;;;;;;;;;5073845;28;20212;-46
2023/01/18 03:51:46;;;;;;;27.57;16.30;;;;;;;;;;5074719;28;20231;-45
2023/01/18 03:54:22;;;;;;;25.93;15.50;;;;;;;;;;5074827;28;20213;-45
2023/01/18 03:57:16;;;;;;;30.93;16.50;;;;;;;;;;5074865;28;20203;-45
2023/01/18 03:59:44;;;;;;;31.93;17.17;;;;;;;;;;5072968;28;20207;-46
2023/01/18 04:02:11;;;;;;;29.50;16.93;;;;;;;;;;5077822;28;20199;-46
2023/01/18 04:04:38;;;;;;;31.57;16.70;;;;;;;;;;5078341;28;20655;-45
2023/01/18 04:07:05;;;;;;;28.83;15.37;;;;;;;;;;5078434;28;20780;-45
2023/01/18 04:09:32;;;;;;;29.47;16.63;;;;;;;;;;5078135;28;20253;-45
2023/01/18 04:11:59;;;;;;;31.60;16.37;;;;;;;;;;5078102;28;20303;-45
2023/01/18 04:14:26;;;;;;;30.73;17.13;;;;;;;;;;5078457;28;20210;-45
2023/01/18 04:16:53;;;;;;;33.33;16.90;;;;;;;;;;5078491;28;20214;-45
2023/01/18 04:19:21;;;;;;;27.47;16.20;;;;;;;;;;5077914;28;20508;-45
2023/01/18 04:21:48;;;;;;;30.73;17.40;;;;;;;;;;5077858;28;20511;-45
2023/01/18 04:24:16;;;;;;;34.90;17.80;;;;;;;;;;5079062;28;20239;-45
2023/01/18 04:26:43;;;;;;;32.63;17.13;;;;;;;;;;5078342;28;20200;-45
2023/01/18 04:29:11;;;;;;;29.83;15.83;;;;;;;;;;5078141;28;20290;-45
2023/01/18 04:31:38;;;;;;;25.90;15.80;;;;;;;;;;5071538;28;20253;-45
2023/01/18 04:34:05;;;;;;;27.23;16.00;;;;;;;;;;5057681;28;20208;-46
2023/01/18 04:36:32;;;;;;;26.00;15.23;;;;;;;;;;5057701;28;20314;-45
2023/01/18 04:38:59;;;;;;;26.93;15.83;;;;;;;;;;5057837;28;20212;-45
2023/01/18 04:41:27;;;;;;;25.93;15.20;;;;;;;;;;5058122;28;20208;-45
2023/01/18 04:43:55;;;;;;;27.30;15.07;;;;;;;;;;5057806;28;20204;-47
2023/01/18 04:46:22;;;;;;;24.77;14.23;;;;;;;;;;5058512;28;20260;-50
2023/01/18 04:48:50;;;;;;;24.67;13.67;;;;;;;;;;5069949;28;20206;-47
2023/01/18 04:51:18;;;;;;;22.20;14.30;;;;;;;;;;5057310;28;20224;-45
2023/01/18 04:53:45;;;;;;;23.40;13.83;;;;;;;;;;5070438;28;20203;-48
2023/01/18 04:56:12;;;;;;;24.43;12.70;;;;;;;;;;5077844;28;20376;-47
2023/01/18 04:58:39;;;;;;;24.03;13.13;;;;;;;;;;5077283;28;20257;-46
2023/01/18 05:01:08;;;;;;;23.27;13.17;;;;;;;;;;5075663;28;20286;-46
2023/01/18 05:03:36;;;;;;;29.20;14.50;;;;;;;;;;5077528;28;20210;-46
2023/01/18 05:06:05;;;;;;;21.63;13.10;;;;;;;;;;5077127;28;20200;-45
2023/01/18 05:08:33;;;;;;;22.90;13.63;;;;;;;;;;5069580;28;20683;-45
2023/01/18 05:11:04;;;;;;;20.93;12.40;;;;;;;;;;5069205;28;20239;-45
2023/01/18 05:13:32;;;;;;;23.70;12.57;;;;;;;;;;5066131;28;20240;-45
2023/01/18 05:15:59;;;;;;;23.67;13.50;;;;;;;;;;5069139;28;20220;-45
2023/01/18 05:18:27;;;;;;;27.47;14.27;;;;;;;;;;5072577;28;20246;-45
2023/01/18 05:20:55;;;;;;;23.50;13.60;;;;;;;;;;5065072;28;20222;-45
2023/01/18 05:23:23;;;;;;;28.97;14.43;;;;;;;;;;5075265;28;20684;-45
2023/01/18 05:25:56;;;;;;;28.03;14.87;;;;;;;;;;5076082;28;20294;-54
2023/01/18 05:28:26;;;;;;;23.87;13.13;;;;;;;;;;5076091;28;20239;-45
2023/01/18 05:30:53;;;;;;;31.23;17.17;;;;;;;;;;5076283;28;20243;-45
2023/01/18 05:33:21;;;;;;;21.97;12.77;;;;;;;;;;5076227;28;20223;-45
2023/01/18 05:35:50;;;;;;;22.20;12.63;;;;;;;;;;5076564;28;20215;-45
2023/01/18 05:38:18;;;;;;;20.53;12.23;;;;;;;;;;5075746;28;20230;-48
2023/01/18 05:40:49;;;;;;;19.20;12.27;;;;;;;;;;5075996;28;20726;-47
2023/01/18 05:43:16;;;;;;;17.07;11.10;;;;;;;;;;5075918;28;20687;-45
2023/01/18 05:45:43;;;;;;;20.47;11.30;;;;;;;;;;5064414;28;20232;-45
2023/01/18 05:48:11;;;;;;;19.37;11.57;;;;;;;;;;5055579;28;20200;-45
2023/01/18 05:50:39;;;;;;;20.83;11.57;;;;;;;;;;5056333;28;20220;-45
2023/01/18 05:53:14;;;;;;;22.13;11.80;;;;;;;;;;5056371;28;20204;-45
2023/01/18 05:55:41;;;;;;;20.83;13.00;;;;;;;;;;5059180;28;20208;-45
2023/01/18 05:58:09;;;;;;;22.30;12.70;;;;;;;;;;5054713;28;20210;-48
2023/01/18 06:00:36;;;;;;;23.47;12.90;;;;;;;;;;5054696;28;20207;-48
2023/01/18 06:03:03;;;;;;;17.70;11.00;;;;;;;;;;5055027;28;20204;-47
2023/01/18 06:05:30;;;;;;;16.80;10.63;;;;;;;;;;5054788;28;20239;-46
2023/01/18 06:07:58;;;;;;;16.50;10.17;;;;;;;;;;5054581;28;20707;-45
2023/01/18 06:10:25;;;;;;;20.73;10.47;;;;;;;;;;5054401;28;20228;-46
2023/01/18 06:12:52;;;;;;;17.97;9.97;;;;;;;;;;5055361;28;20223;-45
2023/01/18 06:15:19;;;;;;;15.23;10.20;;;;;;;;;;5055850;28;20200;-45
2023/01/18 06:17:47;;;;;;;16.97;9.90;;;;;;;;;;5055815;28;20227;-46
2023/01/18 06:20:14;;;;;;;15.73;9.37;;;;;;;;;;5055534;28;20208;-45
2023/01/18 06:22:41;;;;;;;15.43;8.80;;;;;;;;;;5055377;28;20365;-45
2023/01/18 06:25:09;;;;;;;15.70;9.83;;;;;;;;;;5054489;28;20231;-46
2023/01/18 06:27:38;;;;;;;17.00;10.23;;;;;;;;;;5055699;28;20207;-47
2023/01/18 06:30:06;;;;;;;13.93;8.93;;;;;;;;;;5055630;28;20207;-45
2023/01/18 06:32:33;;;;;;;15.33;9.33;;;;;;;;;;5055485;28;20204;-45
2023/01/18 06:35:00;;;;;;;13.47;8.67;;;;;;;;;;5055531;28;20269;-45
2023/01/18 06:37:27;;;;;;;15.97;9.20;;;;;;;;;;5056850;28;20208;-45
2023/01/18 06:39:54;;;;;;;16.57;9.57;;;;;;;;;;5075001;28;20199;-47
2023/01/18 06:42:21;;;;;;;14.70;9.13;;;;;;;;;;5075288;28;20233;-45
2023/01/18 06:44:49;;;;;;;16.20;9.63;;;;;;;;;;5074964;28;20290;-47
2023/01/18 06:47:18;;;;;;;17.37;9.60;;;;;;;;;;5075228;28;20203;-46
2023/01/18 06:49:48;;;;;;;15.13;9.23;;;;;;;;;;5073362;28;20203;-46
2023/01/18 06:52:16;;;;;;;16.83;9.27;;;;;;;;;;5074546;28;20223;-46
2023/01/18 06:54:43;;;;;;;15.33;9.27;;;;;;;;;;5075082;28;20222;-44
2023/01/18 06:57:11;;;;;;;16.40;9.70;;;;;;;;;;5074878;28;20214;-48
2023/01/18 06:59:39;;;;;;;18.70;10.50;;;;;;;;;;5075093;28;20213;-50
2023/01/18 07:02:06;;;;;;;24.50;13.23;;;;;;;;;;5072919;28;20207;-46
2023/01/18 07:04:40;;;;;;;20.90;11.40;;;;;;;;;;5073518;28;20203;-45
2023/01/18 07:07:07;;;;;;;20.37;11.23;;;;;;;;;;5074585;28;20199;-45
2023/01/18 07:09:34;;;;;;;18.77;11.33;;;;;;;;;;5074926;28;20200;-44
2023/01/18 07:12:01;;;;;;;18.90;11.50;;;;;;;;;;5074628;28;20688;-47
2023/01/18 07:14:28;;;;;;;19.00;11.20;;;;;;;;;;5074634;28;20218;-48
2023/01/18 07:16:56;;;;;;;21.43;12.20;;;;;;;;;;5074560;28;20644;-49
2023/01/18 07:19:23;;;;;;;23.23;13.20;;;;;;;;;;5074893;28;20282;-48
2023/01/18 07:21:52;;;;;;;29.63;14.73;;;;;;;;;;5074779;28;20214;-49
2023/01/18 07:24:19;;;;;;;27.83;14.30;;;;;;;;;;5074729;28;20243;-46
2023/01/18 07:26:47;;;;;;;25.33;13.93;;;;;;;;;;5074905;28;20531;-45
2023/01/18 07:29:14;;;;;;;27.10;15.07;;;;;;;;;;5073854;28;20203;-45
2023/01/18 07:31:41;;;;;;;30.83;15.93;;;;;;;;;;5074353;28;20238;-47
2023/01/18 07:34:09;;;;;;;30.23;16.43;;;;;;;;;;5074178;28;20269;-46
2023/01/18 07:36:40;;;;;;;31.13;16.50;;;;;;;;;;5071224;28;20191;-46
2023/01/18 07:39:08;;;;;;;27.40;15.37;;;;;;;;;;5074192;28;20517;-46
2023/01/18 07:41:36;;;;;;;34.27;17.43;;;;;;;;;;5074062;28;20195;-49
2023/01/18 07:44:04;;;;;;;49.10;23.63;;;;;;;;;;5074390;28;20233;-47
2023/01/18 07:46:31;;;;;;;37.10;22.67;;;;;;;;;;5074080;28;20608;-47
2023/01/18 07:49:01;;;;;;;53.60;27.57;;;;;;;;;;5074146;28;20195;-51
2023/01/18 07:51:29;;;;;;;52.40;24.23;;;;;;;;;;5074478;28;20223;-51
2023/01/18 07:53:56;;;;;;;48.27;20.23;;;;;;;;;;5074423;28;20265;-48
2023/01/18 07:56:24;;;;;;;40.97;19.33;;;;;;;;;;5074530;28;20214;-51
2023/01/18 07:58:52;;;;;;;54.87;22.57;;;;;;;;;;5074045;28;20238;-49
2023/01/18 08:01:20;;;;;;;42.03;20.73;;;;;;;;;;5074435;28;20212;-48
2023/01/18 08:03:49;;;;;;;46.00;20.70;;;;;;;;;;5074340;28;20191;-48
2023/01/18 08:06:23;;;;;;;47.10;21.63;;;;;;;;;;5074364;28;20214;-47
2023/01/18 08:08:51;;;;;;;58.97;26.40;;;;;;;;;;5073960;28;20636;-46
2023/01/18 08:11:19;;;;;;;58.60;24.67;;;;;;;;;;5073350;28;20590;-49
2023/01/18 08:13:48;;;;;;;56.93;23.00;;;;;;;;;;5074142;28;20210;-48
2023/01/18 08:16:15;;;;;;;86.73;29.57;;;;;;;;;;5074802;28;20265;-48
2023/01/18 08:18:44;;;;;;;108.77;76.00;;;;;;;;;;5074331;28;20204;-48
2023/01/18 08:21:12;;;;;;;50.87;31.13;;;;;;;;;;5074471;28;20534;-48
2023/01/18 08:23:39;;;;;;;56.33;30.07;;;;;;;;;;5073909;28;20230;-48
2023/01/18 08:26:08;;;;;;;45.10;22.87;;;;;;;;;;5072882;28;20211;-48
2023/01/18 08:28:35;;;;;;;87.23;31.77;;;;;;;;;;5074183;28;20199;-48
2023/01/18 08:31:07;;;;;;;60.80;25.47;;;;;;;;;;5074077;28;20223;-47
2023/01/18 08:33:44;;;;;;;60.10;25.77;;;;;;;;;;5074109;28;20183;-47
2023/01/18 08:36:14;;;;;;;54.37;23.80;;;;;;;;;;5074072;28;20214;-46
2023/01/18 08:38:41;;;;;;;53.13;24.13;;;;;;;;;;5074005;28;20227;-46
2023/01/18 08:41:09;;;;;;;67.57;32.73;;;;;;;;;;5073961;28;20269;-47
2023/01/18 08:43:36;;;;;;;39.03;22.73;;;;;;;;;;5073761;28;20203;-47
2023/01/18 08:46:03;;;;;;;64.20;26.93;;;;;;;;;;5073479;28;20799;-49
2023/01/18 08:48:31;;;;;;;71.53;28.07;;;;;;;;;;5076933;28;20199;-47
2023/01/18 08:51:02;;;;;;;103.90;49.50;;;;;;;;;;5074724;28;20510;-47
2023/01/18 08:53:30;;;;;;;67.63;48.80;;;;;;;;;;5077174;28;20287;-47
2023/01/18 08:55:57;;;;;;;67.87;37.27;;;;;;;;;;5077105;28;20742;-49
2023/01/18 08:58:24;;;;;;;51.83;28.47;;;;;;;;;;5076933;28;20215;-50
2023/01/18 09:00:52;;;;;;;69.37;28.93;;;;;;;;;;5076674;28;20708;-51
2023/01/18 09:03:20;;;;;;;62.70;26.17;;;;;;;;;;5076914;28;20199;-51
2023/01/18 09:05:48;;;;;;;58.17;25.17;;;;;;;;;;5076858;28;20199;-48
2023/01/18 09:08:16;;;;;;;61.17;24.47;;;;;;;;;;5077499;28;20203;-48
2023/01/18 09:10:44;;;;;;;43.07;21.47;;;;;;;;;;5076878;28;20211;-47
2023/01/18 09:13:11;;;;;;;43.40;21.77;;;;;;;;;;5077207;28;20310;-49
2023/01/18 09:15:38;;;;;;;87.57;44.77;;;;;;;;;;5076694;28;20195;-48
2023/01/18 09:18:06;;;;;;;88.37;41.13;;;;;;;;;;5077180;28;20210;-49
2023/01/18 09:20:34;;;;;;;75.67;30.07;;;;;;;;;;5076961;28;20207;-49
2023/01/18 09:23:04;;;;;;;55.57;23.80;;;;;;;;;;5076890;28;20598;-50
2023/01/18 09:25:32;;;;;;;118.90;64.43;;;;;;;;;;5076311;28;20203;-51
2023/01/18 09:28:00;;;;;;;57.97;36.17;;;;;;;;;;5076968;28;20612;-51
2023/01/18 09:30:28;;;;;;;77.13;34.27;;;;;;;;;;5076945;28;20203;-49
2023/01/18 09:32:56;;;;;;;59.53;29.60;;;;;;;;;;5076442;28;20245;-50
2023/01/18 09:35:25;;;;;;;74.80;29.57;;;;;;;;;;5076764;28;20207;-49
2023/01/18 09:37:53;;;;;;;96.47;33.10;;;;;;;;;;5076909;28;20565;-50
2023/01/18 09:40:24;;;;;;;66.47;28.33;;;;;;;;;;5076535;28;20199;-51
2023/01/18 09:42:52;;;;;;;57.53;25.23;;;;;;;;;;5075536;28;20223;-49
2023/01/18 09:45:26;;;;;;;49.17;22.70;;;;;;;;;;5075464;28;20207;-47
2023/01/18 09:48:03;;;;;;;121.03;49.27;;;;;;;;;;5075568;28;20199;-50
2023/01/18 09:50:40;;;;;;;43.47;22.70;;;;;;;;;;5076604;28;20560;-48
2023/01/18 09:53:15;;;;;;;43.87;21.67;;;;;;;;;;5075062;28;20206;-47
2023/01/18 09:56:08;;;;;;;57.27;23.13;;;;;;;;;;5076204;28;20202;-49
2023/01/18 09:59:01;;;;;;;58.17;22.87;;;;;;;;;;5071306;28;20200;-45
2023/01/18 10:01:32;;;;;;;50.93;31.60;;;;;;;;;;5075044;28;20195;-47
2023/01/18 10:04:28;;;;;;;45.13;25.60;;;;;;;;;;5075278;28;20223;-47
2023/01/18 10:06:59;;;;;;;43.97;23.20;;;;;;;;;;5075652;28;20707;-47
2023/01/18 10:09:30;;;;;;;45.20;22.17;;;;;;;;;;5074849;28;20249;-48
2023/01/18 10:12:22;;;;;;;51.70;22.97;;;;;;;;;;5074776;28;20223;-48
2023/01/18 10:15:06;;;;;;;49.40;22.30;;;;;;;;;;5075399;28;20214;-52
2023/01/18 10:17:37;;;;;;;51.80;21.87;;;;;;;;;;5075023;28;20573;-48
2023/01/18 10:20:13;;;;;;;52.07;25.50;;;;;;;;;;5072274;28;20230;-45
2023/01/18 10:22:48;;;;;;;40.73;21.00;;;;;;;;;;5075260;28;20195;-49
2023/01/18 10:25:40;;;;;;;69.67;34.33;;;;;;;;;;5075083;28;20195;-48
2023/01/18 10:28:17;;;;;;;76.17;28.93;;;;;;;;;;5066551;28;20199;-48
2023/01/18 10:31:21;;;;;;;78.13;24.07;;;;;;;;;;5075450;28;20195;-48
2023/01/18 10:33:52;;;;;;;66.23;27.57;;;;;;;;;;5075274;28;20195;-47
2023/01/18 10:36:33;;;;;;;224.50;103.10;;;;;;;;;;5075358;28;20256;-47
2023/01/18 10:39:03;;;;;;;108.50;64.70;;;;;;;;;;5074659;28;20257;-46
2023/01/18 10:41:35;;;;;;;90.10;38.07;;;;;;;;;;5074009;28;20632;-51
2023/01/18 10:44:03;;;;;;;53.80;23.77;;;;;;;;;;5075235;28;20244;-48
2023/01/18 10:46:30;;;;;;;109.57;35.60;;;;;;;;;;5074895;28;20200;-47
2023/01/18 10:48:58;;;;;;;138.53;47.00;;;;;;;;;;5074871;28;20214;-48
2023/01/18 10:51:25;;;;;;;109.00;42.37;;;;;;;;;;5073644;28;20203;-48
2023/01/18 10:53:52;;;;;;;52.97;22.80;;;;;;;;;;5074878;28;20210;-51
2023/01/18 10:56:23;;;;;;;63.37;24.13;;;;;;;;;;5074335;28;20203;-48
2023/01/18 10:58:50;;;;;;;152.20;59.63;;;;;;;;;;5073450;28;20200;-49
2023/01/18 11:01:21;;;;;;;196.27;76.17;;;;;;;;;;5074481;28;20658;-51
2023/01/18 11:03:51;;;;;;;309.83;98.67;;;;;;;;;;5075215;28;20235;-49
2023/01/18 11:06:19;;;;;;;559.60;170.80;;;;;;;;;;5073890;28;20249;-48
2023/01/18 11:08:48;;;;;;;255.67;82.57;;;;;;;;;;5074721;28;20203;-47
2023/01/18 11:14:26;;;;;;;110.83;48.33;;;;;;;;;;5067150;28;20725;-52
2023/01/18 11:17:01;;;;;;;119.20;53.83;;;;;;;;;;5073310;28;20764;-51
2023/01/18 11:19:29;;;;;;;71.60;30.20;;;;;;;;;;5073738;28;20749;-48
2023/01/18 11:21:56;;;;;;;123.15;46.25;;;;;;;;;;5073329;28;20258;-47
2023/01/18 11:24:27;;;;;;;67.50;29.03;;;;;;;;;;5073739;28;20238;-48
2023/01/18 11:27:03;;;;;;;56.80;25.60;;;;;;;;;;5073371;28;20227;-47
2023/01/18 11:29:33;;;;;;;57.50;24.97;;;;;;;;;;5074323;28;20214;-49
2023/01/18 11:32:08;;;;;;;59.20;28.23;;;;;;;;;;5072417;28;20601;-48
2023/01/18 11:34:38;;;;;;;76.63;37.50;;;;;;;;;;5073983;28;20550;-46
2023/01/18 11:37:33;;;;;;;71.77;35.53;;;;;;;;;;5072704;28;20547;-50
2023/01/18 11:40:19;;;;;;;83.03;32.33;;;;;;;;;;5073177;28;20271;-46
2023/01/18 11:42:48;;;;;;;97.17;53.23;;;;;;;;;;5053294;28;20251;-52
2023/01/18 11:45:29;;;;;;;99.97;52.57;;;;;;;;;;5054716;28;20224;-47
2023/01/18 11:48:10;;;;;;;109.07;52.93;;;;;;;;;;5073641;28;20255;-47
2023/01/18 11:50:42;;;;;;;94.17;42.47;;;;;;;;;;5073054;28;20627;-47
2023/01/18 11:53:20;;;;;;;67.27;33.47;;;;;;;;;;5073299;28;20230;-46
2023/01/18 11:56:06;;;;;;;71.30;36.33;;;;;;;;;;5072338;28;20210;-48
2023/01/18 11:58:34;;;;;;;65.80;34.60;;;;;;;;;;5073595;28;20310;-46
2023/01/18 12:01:32;;;;;;;65.17;33.40;;;;;;;;;;5072985;28;20656;-47
2023/01/18 12:04:08;;;;;;;69.93;29.83;;;;;;;;;;5072522;28;20211;-47
2023/01/18 12:07:03;;;;;;;124.10;59.43;;;;;;;;;;5072731;28;20241;-46
2023/01/18 12:09:51;;;;;;;142.50;64.27;;;;;;;;;;5073650;28;20234;-47
2023/01/18 12:12:47;;;;;;;140.70;64.13;;;;;;;;;;5073229;28;20680;-47
2023/01/18 12:15:28;;;;;;;111.35;53.08;;;;;;;;;;5072805;28;20276;-47
2023/01/18 12:18:06;;;;;;;108.13;50.53;;;;;;;;;;5073426;28;20231;-47
2023/01/18 12:20:42;;;;;;;102.55;50.35;;;;;;;;;;5038508;28;20734;-47
2023/01/18 12:23:24;;;;;;;65.97;32.08;;;;;;;;;;5075423;28;20296;-50
2023/01/18 12:26:19;;;;;;;61.90;32.50;;;;;;;;;;5077691;28;20187;-48
2023/01/18 12:28:55;;;;;;;36.77;21.13;;;;;;;;;;5077986;28;20215;-48
2023/01/18 12:31:25;;;;;;;32.93;19.63;;;;;;;;;;5075387;28;20208;-47
2023/01/18 12:34:00;;;;;;;43.10;23.67;;;;;;;;;;5076948;28;20212;-51
2023/01/18 12:36:54;;;;;;;69.28;35.03;;;;;;;;;;5077191;28;20195;-48
2023/01/18 12:39:33;;;;;;;65.68;34.78;;;;;;;;;;5076329;28;20188;-47
2023/01/18 12:42:11;;;;;;;45.38;25.73;;;;;;;;;;5077805;28;20191;-48
2023/01/18 12:45:01;;;;;;;78.27;33.53;;;;;;;;;;5076894;28;20187;-47
2023/01/18 12:47:38;;;;;;;82.30;36.30;;;;;;;;;;5076738;28;20194;-47
2023/01/18 12:50:17;;;;;;;34.40;18.33;;;;;;;;;;5076835;28;20195;-47
2023/01/18 12:52:48;;;;;;;33.23;18.13;;;;;;;;;;5076514;28;20221;-48
2023/01/18 12:55:19;;;;;;;29.77;16.37;;;;;;;;;;5076746;28;20202;-48
2023/01/18 12:57:54;;;;;;;38.77;20.57;;;;;;;;;;5077546;28;20216;-50
2023/01/18 13:00:32;;;;;;;36.00;21.40;;;;;;;;;;5077108;28;20187;-47
2023/01/18 13:03:02;;;;;;;53.67;27.37;;;;;;;;;;5076431;28;20215;-47
2023/01/18 13:05:51;;;;;;;37.70;21.47;;;;;;;;;;5077106;28;20195;-48
2023/01/18 13:08:38;;;;;;;34.33;19.13;;;;;;;;;;5077314;28;20214;-49
2023/01/18 13:11:13;;;;;;;35.73;18.63;;;;;;;;;;5077280;28;20310;-47
2023/01/18 13:13:41;;;;;;;37.93;21.67;;;;;;;;;;5075265;28;20215;-54
2023/01/18 13:16:30;;;;;;;38.43;21.33;;;;;;;;;;5060003;28;20192;-48
2023/01/18 13:19:02;;;;;;;29.60;17.00;;;;;;;;;;5077345;28;20203;-46
2023/01/18 13:21:41;;;;;;;36.93;22.00;;;;;;;;;;5076640;28;20203;-46
2023/01/18 13:24:46;;;;;;;30.53;16.07;;;;;;;;;;5075942;28;20227;-50
2023/01/18 13:27:15;;;;;;;30.80;18.83;;;;;;;;;;5076545;28;20624;-48
2023/01/18 13:29:42;;;;;;;34.93;17.17;;;;;;;;;;5076102;28;20211;-47
2023/01/18 13:32:26;;;;;;;30.53;17.10;;;;;;;;;;5075780;28;20210;-46
2023/01/18 13:35:19;;;;;;;30.10;17.60;;;;;;;;;;5076691;28;20187;-47
2023/01/18 13:37:51;;;;;;;32.97;17.30;;;;;;;;;;5076381;28;20192;-47
2023/01/18 13:40:41;;;;;;;29.50;16.80;;;;;;;;;;5075970;28;20176;-47
2023/01/18 13:43:36;;;;;;;27.77;16.77;;;;;;;;;;5075412;28;20214;-47
2023/01/18 13:46:06;;;;;;;30.67;19.33;;;;;;;;;;5076569;28;20286;-47
2023/01/18 13:48:51;;;;;;;29.63;16.87;;;;;;;;;;5076313;28;20500;-48
2023/01/18 13:51:46;;;;;;;29.53;17.80;;;;;;;;;;5076355;28;20183;-47
2023/01/18 13:54:22;;;;;;;43.33;21.97;;;;;;;;;;5074708;28;20227;-48
2023/01/18 13:57:04;;;;;;;27.23;17.50;;;;;;;;;;5073555;28;20206;-47
2023/01/18 13:59:35;;;;;;;27.10;16.13;;;;;;;;;;5064652;28;20238;-48
2023/01/18 14:02:26;;;;;;;26.10;15.57;;;;;;;;;;5073986;28;20602;-48
2023/01/18 14:05:24;;;;;;;28.20;16.50;;;;;;;;;;5071764;28;20224;-46
2023/01/18 14:07:54;;;;;;;28.60;15.20;;;;;;;;;;5075020;28;20231;-48
2023/01/18 14:10:30;;;;;;;27.57;16.23;;;;;;;;;;5074290;28;20219;-50
2023/01/18 14:12:59;;;;;;;28.40;16.43;;;;;;;;;;5073386;28;20720;-50
2023/01/18 14:15:42;;;;;;;28.03;15.63;;;;;;;;;;5075539;28;20215;-46
2023/01/18 14:18:27;;;;;;;26.77;14.73;;;;;;;;;;5074581;28;20235;-46
2023/01/18 14:21:28;;;;;;;23.70;14.63;;;;;;;;;;5074363;28;20223;-49
2023/01/18 14:24:19;;;;;;;22.77;13.80;;;;;;;;;;5075128;28;20253;-47
2023/01/18 14:26:47;;;;;;;40.20;17.87;;;;;;;;;;5074708;28;20238;-46
2023/01/18 14:29:19;;;;;;;26.37;16.07;;;;;;;;;;5073849;28;20223;-47
2023/01/18 14:31:50;;;;;;;28.80;15.57;;;;;;;;;;5075074;28;20226;-49
2023/01/18 14:34:34;;;;;;;22.10;14.10;;;;;;;;;;5074660;28;20317;-45
2023/01/18 14:37:02;;;;;;;34.50;20.10;;;;;;;;;;5074369;28;20211;-51
2023/01/18 14:39:32;;;;;;;61.40;37.33;;;;;;;;;;5074812;28;20223;-45
2023/01/18 14:42:02;;;;;;;36.70;22.53;;;;;;;;;;5073803;28;20226;-47
2023/01/18 14:44:39;;;;;;;41.10;22.77;;;;;;;;;;5074253;28;20516;-46
2023/01/18 14:47:30;;;;;;;35.70;19.83;;;;;;;;;;5073927;28;20216;-49
2023/01/18 14:49:59;;;;;;;38.30;22.33;;;;;;;;;;5073972;28;20230;-47
2023/01/18 14:52:30;;;;;;;35.07;19.23;;;;;;;;;;5072122;28;20215;-46
2023/01/18 14:54:57;;;;;;;58.87;27.20;;;;;;;;;;5069015;28;20275;-47
2023/01/18 14:57:25;;;;;;;66.10;29.10;;;;;;;;;;5073791;28;20229;-48
2023/01/18 14:59:55;;;;;;;57.93;29.10;;;;;;;;;;5073117;28;20679;-47
2023/01/18 15:02:28;;;;;;;85.93;36.50;;;;;;;;;;5074473;28;20722;-48
2023/01/18 15:05:16;;;;;;;72.33;31.70;;;;;;;;;;5070159;28;20531;-46
2023/01/18 15:07:55;;;;;;;44.17;19.17;;;;;;;;;;5066198;28;20223;-47
2023/01/18 15:10:23;;;;;;;28.80;13.93;;;;;;;;;;5074586;28;20626;-48
2023/01/18 15:12:53;;;;;;;45.67;20.47;;;;;;;;;;5073313;28;20284;-48
2023/01/18 15:15:24;;;;;;;15.10;8.70;;;;;;;;;;5070306;28;20303;-48
2023/01/18 15:17:55;;;;;;;13.60;8.17;;;;;;;;;;5073293;28;20540;-48
2023/01/18 15:20:22;;;;;;;10.90;6.67;;;;;;;;;;5070065;28;20222;-47
2023/01/18 15:22:52;;;;;;;19.23;10.33;;;;;;;;;;5073413;28;20215;-47
2023/01/18 15:25:25;;;;;;;11.80;7.37;;;;;;;;;;5073884;28;20257;-48